This is the latest recevied weather packets stored in our database for station/object KQ4DLB-13. If no packets are shown the sender has not sent any weather packets the latest 10 day(s).
| Time | Temp. | Humidity | Pressure | Rain* | Wind** | Luminosity | Snow |
|---|---|---|---|---|---|---|---|
| 1777781402 | 5.56° C | 94% | 994.7 hPa | 0 mm | - | - | - |
| 1777781102 | 5.56° C | 94% | 994.7 hPa | 0 mm | - | - | - |
| 1777780803 | 5.56° C | 94% | 994.6 hPa | 0 mm | - | - | - |
| 1777780502 | 5.56° C | 94% | 994.7 hPa | 0 mm | - | - | - |
| 1777780202 | 5.56° C | 94% | 994.7 hPa | 0 mm | - | - | - |
| 1777779902 | 5.56° C | 94% | 994.7 hPa | 0 mm | - | - | - |
| 1777779602 | 5.56° C | 94% | 994.6 hPa | 0 mm | - | - | - |
| 1777779303 | 6.11° C | 94% | 994.7 hPa | 0 mm | - | - | - |
| 1777779002 | 6.11° C | 93% | 994.7 hPa | 0 mm | - | - | - |
| 1777778702 | 6.11° C | 93% | 994.7 hPa | 0 mm | - | - | - |
| 1777778402 | 6.11° C | 93% | 994.7 hPa | 0 mm | - | - | - |
| 1777778102 | 6.11° C | 93% | 994.6 hPa | 0 mm | - | - | - |
| 1777777802 | 6.11° C | 93% | 994.5 hPa | 0 mm | - | - | - |
| 1777777502 | 6.11° C | 93% | 994.5 hPa | 0 mm | - | - | - |
| 1777777201 | 6.67° C | 92% | 994.4 hPa | 0 mm | - | - | - |
| 1777776902 | 6.67° C | 92% | 994.4 hPa | 0 mm | - | - | - |
| 1777776602 | 6.67° C | 92% | 994.3 hPa | 0 mm | - | - | - |
| 1777776302 | 6.67° C | 92% | 994.3 hPa | 0 mm | - | - | - |
| 1777776002 | 6.67° C | 92% | 994.3 hPa | 0 mm | - | - | - |
| 1777775702 | 6.67° C | 92% | 994.2 hPa | 0 mm | - | - | - |
| 1777775402 | 7.22° C | 91% | 994.2 hPa | 0 mm | - | - | - |
| 1777775102 | 7.22° C | 91% | 994.2 hPa | 0 mm | - | - | - |
| 1777770602 | 10° C | 80% | 993.2 hPa | 0 mm | - | - | - |
| 1777768802 | 11.11° C | 75% | 993 hPa | 0 mm | - | - | - |
| 1777761302 | 13.89° C | 66% | 991.7 hPa | 0 mm | - | 129 W/m² | - |
* Rain latest hour (hover to see other rain measurements)
** Current wind speed in m/s (hover to see current wind gust speed)